2PA9 weather

Wilson Heliport
Lansdale, Pennsylvania, United States

Public forecast

Using degrees Fahrenheit for public forecast. Weather courtesy of forecast.io.

Closest aviation weather report (METAR) to Wilson Heliport

Closest report is Wings Field, 4.1 nm (7.6 km) SSE. Retrieved 2020/08/08 11:35 UTC (7 minutes ago):

KLOM 081135Z AUTO 00000KT 5SM BR BKN005 21/20 A3017 RMK AO2 T02070204

Closest aviation forecast (TAF) to Wilson Heliport

Closest forecast is Northeast Philadelphia Airport, 15.0 nm (27.9 km) ESE. Retrieved 2020/08/08 06:22 UTC (5 hours ago):

TAF KPNE 080520Z 0806/0906 VRB03KT 5SM BR OVC015 FM080800 VRB02KT 2SM BR OVC007 FM081200 VRB02KT P6SM OVC020 FM081600 08004KT P6SM FEW025 SCT050 FM090000 VRB02KT P6SM SKC